createdAt,value
2018-01-20T02:33:18.718Z,79.90
2018-01-20T02:35:46.304Z,81.07
2018-01-20T02:38:13.867Z,77.60
2018-01-20T02:40:41.464Z,79.07
2018-01-20T02:43:09.790Z,69.10
2018-01-20T02:45:37.597Z,72.77
2018-01-20T02:48:05.936Z,81.23
2018-01-20T02:50:33.523Z,76.53
2018-01-20T02:53:01.862Z,76.07
2018-01-20T02:55:29.453Z,75.53
2018-01-20T02:57:57.886Z,65.87
2018-01-20T03:00:25.470Z,79.43
2018-01-20T03:02:53.045Z,65.60
2018-01-20T03:05:20.636Z,70.43
2018-01-20T03:07:48.198Z,71.43
2018-01-20T03:10:15.785Z,69.67
2018-01-20T03:12:43.445Z,69.70
2018-01-20T03:15:11.109Z,68.03
2018-01-20T03:17:38.695Z,67.73
2018-01-20T03:20:06.283Z,63.60
2018-01-20T03:22:33.842Z,70.40
2018-01-20T03:25:01.449Z,63.30
2018-01-20T03:27:29.096Z,67.40
2018-01-20T03:29:56.682Z,66.33
2018-01-20T03:32:24.320Z,60.63
2018-01-20T03:34:51.908Z,60.03
2018-01-20T03:37:19.486Z,61.37
2018-01-20T03:39:47.862Z,62.73
2018-01-20T03:42:16.767Z,68.83
2018-01-20T03:44:44.476Z,60.37
2018-01-20T03:47:12.034Z,54.33
2018-01-20T03:49:39.670Z,55.50
2018-01-20T03:52:07.339Z,55.37
2018-01-20T03:54:34.917Z,57.23
2018-01-20T03:57:02.477Z,52.90
2018-01-20T03:59:30.066Z,51.63
2018-01-20T04:01:58.398Z,52.43
2018-01-20T04:04:25.989Z,56.83
2018-01-20T04:06:54.418Z,55.83
2018-01-20T04:09:22.031Z,54.17
2018-01-20T04:11:50.364Z,52.90
2018-01-20T04:14:18.020Z,49.57
2018-01-20T04:16:45.586Z,53.27
2018-01-20T04:19:13.146Z,51.00
2018-01-20T04:21:40.785Z,50.60
2018-01-20T04:24:08.452Z,47.67
2018-01-20T04:26:36.065Z,52.27
2018-01-20T04:29:03.662Z,52.50
2018-01-20T04:31:31.263Z,48.03
2018-01-20T04:33:58.827Z,46.23
2018-01-20T04:36:27.183Z,44.27
2018-01-20T04:38:54.823Z,48.43
2018-01-20T04:41:22.419Z,46.97
2018-01-20T04:43:50.978Z,49.30
2018-01-20T04:46:18.563Z,44.60
2018-01-20T04:48:46.890Z,44.53
2018-01-20T04:51:14.564Z,45.07
2018-01-20T04:53:42.122Z,44.83
2018-01-20T04:56:09.715Z,42.80
2018-01-20T04:58:38.584Z,43.47
2018-01-20T05:01:06.187Z,42.07
2018-01-20T05:03:33.774Z,41.63
2018-01-20T05:09:24.507Z,39.97
2018-01-20T05:11:52.109Z,42.97
2018-01-20T05:14:20.539Z,39.70
2018-01-20T05:18:03.055Z,36.63
2018-01-20T05:20:32.165Z,43.03
2018-01-20T05:23:00.457Z,37.17
2018-01-20T05:25:30.170Z,41.80
2018-01-20T05:30:07.922Z,39.97
2018-01-20T05:32:35.530Z,38.77
2018-01-20T05:35:03.090Z,37.63
2018-01-20T05:37:31.386Z,35.73
2018-01-20T05:39:59.874Z,35.07
2018-01-20T05:42:27.449Z,35.27
2018-01-20T05:44:55.115Z,35.47
2018-01-20T05:47:22.874Z,35.03
2018-01-20T05:52:41.563Z,33.07
2018-01-20T05:55:09.159Z,35.63
2018-01-20T05:57:37.493Z,34.70
2018-01-20T06:00:05.087Z,35.83
2018-01-20T06:02:32.667Z,31.70
2018-01-20T06:05:01.024Z,33.50
2018-01-20T06:07:28.604Z,31.80
2018-01-20T06:09:56.184Z,33.77
2018-01-20T06:12:23.752Z,31.03
2018-01-20T06:14:51.347Z,29.03
2018-01-20T06:17:18.997Z,30.73
2018-01-20T06:19:47.101Z,32.60
2018-01-20T06:22:16.143Z,29.83
2018-01-20T06:24:44.773Z,30.57
2018-01-20T06:27:13.308Z,31.83
2018-01-20T06:29:41.569Z,28.27
2018-01-20T06:32:09.216Z,29.47
2018-01-20T06:34:36.774Z,28.93
2018-01-20T06:37:04.366Z,30.40
2018-01-20T06:39:31.935Z,29.50
2018-01-20T06:41:59.587Z,31.37
2018-01-20T06:44:27.159Z,28.20
2018-01-20T06:46:54.790Z,25.90
2018-01-20T06:49:22.358Z,30.43
2018-01-20T06:51:49.975Z,25.30
2018-01-20T06:54:18.291Z,27.13
2018-01-20T06:56:45.877Z,26.47
2018-01-20T06:59:13.524Z,24.53
2018-01-20T07:01:41.099Z,28.27
2018-01-20T07:04:08.668Z,25.83
2018-01-20T07:06:37.002Z,28.70
2018-01-20T07:09:04.577Z,26.13
2018-01-20T07:11:32.318Z,24.13
2018-01-20T07:13:59.882Z,24.27
2018-01-20T07:16:27.455Z,26.03
2018-01-20T07:18:55.047Z,26.20
2018-01-20T07:21:22.616Z,25.50
2018-01-20T07:23:50.203Z,24.80
2018-01-20T07:26:17.780Z,24.20
2018-01-20T07:28:45.353Z,23.63
2018-01-20T07:31:12.923Z,23.90
2018-01-20T07:33:41.360Z,23.40
2018-01-20T07:36:09.027Z,21.20
2018-01-20T07:38:36.596Z,21.07
2018-01-20T07:41:04.938Z,22.80
2018-01-20T07:43:32.616Z,23.97
2018-01-20T07:46:00.177Z,20.20
2018-01-20T07:48:27.768Z,23.17
2018-01-20T07:50:56.134Z,21.37
2018-01-20T07:53:23.785Z,21.63
2018-01-20T07:55:51.427Z,21.77
2018-01-20T07:58:19.096Z,24.10
2018-01-20T08:00:46.725Z,22.63
2018-01-20T08:03:14.303Z,19.33
2018-01-20T08:05:41.896Z,23.80
2018-01-20T08:08:09.492Z,20.23
2018-01-20T08:10:37.129Z,19.70
2018-01-20T08:13:04.687Z,19.93
2018-01-20T08:15:33.042Z,18.50
2018-01-20T08:18:00.635Z,21.33
2018-01-20T08:20:28.214Z,19.27
2018-01-20T08:22:55.819Z,19.43
2018-01-20T08:25:24.191Z,18.67
2018-01-20T08:27:51.808Z,19.17
2018-01-20T08:30:19.404Z,19.67
2018-01-20T08:32:47.034Z,20.00
2018-01-20T08:35:14.614Z,17.90
2018-01-20T08:37:42.256Z,19.97
2018-01-20T08:40:09.830Z,18.27
2018-01-20T08:42:37.480Z,18.50
2018-01-20T08:45:05.162Z,18.97
2018-01-20T08:47:32.767Z,17.27
2018-01-20T08:50:00.361Z,18.47
2018-01-20T08:52:27.960Z,17.47
2018-01-20T08:54:56.307Z,15.83
2018-01-20T08:57:23.898Z,14.57
2018-01-20T08:59:52.226Z,16.47
2018-01-20T09:02:19.871Z,16.20
2018-01-20T09:04:47.409Z,17.63
2018-01-20T09:07:15.016Z,16.83
2018-01-20T09:09:42.668Z,16.73
2018-01-20T09:12:10.263Z,18.07
2018-01-20T09:14:38.608Z,13.87
2018-01-20T09:17:06.198Z,14.90
2018-01-20T09:19:34.548Z,17.00
2018-01-20T09:22:02.153Z,15.97
2018-01-20T09:24:30.474Z,15.43
2018-01-20T09:26:58.071Z,16.73
2018-01-20T09:29:26.521Z,15.60
2018-01-20T09:31:54.175Z,15.27
2018-01-20T09:34:21.812Z,12.80
2018-01-20T09:36:49.482Z,14.23
2018-01-20T09:39:17.030Z,14.47
2018-01-20T09:41:44.606Z,14.10
2018-01-20T09:44:12.244Z,16.70
2018-01-20T09:46:39.822Z,15.10
2018-01-20T09:49:07.400Z,14.93
2018-01-20T09:51:35.008Z,13.83
2018-01-20T09:54:02.580Z,14.93
2018-01-20T09:56:30.158Z,13.13
2018-01-20T09:58:57.733Z,12.83
2018-01-20T10:01:25.315Z,12.20
2018-01-20T10:03:52.897Z,13.77
2018-01-20T10:06:20.512Z,13.50
2018-01-20T10:08:48.082Z,13.00
2018-01-20T10:11:16.525Z,13.70
2018-01-20T10:13:44.091Z,13.97
2018-01-20T10:16:11.739Z,12.83
2018-01-20T10:18:39.403Z,13.63
2018-01-20T10:21:06.974Z,12.43
2018-01-20T10:23:34.691Z,12.07
2018-01-20T10:26:02.279Z,12.60
2018-01-20T10:28:29.853Z,14.73
2018-01-20T10:30:57.446Z,11.83
2018-01-20T10:33:25.779Z,10.80
2018-01-20T10:35:53.345Z,13.13
2018-01-20T10:38:20.989Z,11.90
2018-01-20T10:40:48.559Z,12.53
2018-01-20T10:43:16.138Z,9.63
2018-01-20T10:45:43.786Z,12.93
2018-01-20T10:48:11.417Z,10.93
2018-01-20T10:50:38.982Z,12.57
2018-01-20T10:53:06.629Z,11.37
2018-01-20T10:55:34.254Z,10.80
2018-01-20T10:58:01.832Z,11.20
2018-01-20T11:00:29.400Z,11.17
2018-01-20T11:02:56.987Z,10.53
2018-01-20T11:05:24.547Z,11.80
2018-01-20T11:07:52.154Z,10.73
2018-01-20T11:10:19.727Z,10.80
2018-01-20T11:12:47.305Z,9.83
2018-01-20T11:15:14.875Z,10.30
2018-01-20T11:17:42.527Z,10.83
2018-01-20T11:20:10.091Z,10.30
2018-01-20T11:22:37.683Z,10.17
2018-01-20T11:25:05.244Z,9.67
2018-01-20T11:27:33.693Z,10.53
2018-01-20T11:30:01.286Z,11.07
2018-01-20T11:32:29.700Z,9.90
2018-01-20T11:34:57.383Z,8.70
2018-01-20T11:37:25.032Z,10.23
2018-01-20T11:39:52.587Z,8.07
2018-01-20T11:42:20.341Z,8.93
2018-01-20T11:44:47.916Z,9.67
2018-01-20T11:47:15.569Z,8.47
2018-01-20T11:49:43.228Z,9.57
2018-01-20T11:52:10.861Z,10.00
2018-01-20T11:54:38.448Z,9.77
2018-01-20T11:57:06.005Z,9.13
2018-01-20T11:59:33.603Z,8.40
2018-01-20T12:02:01.174Z,8.27
2018-01-20T12:04:29.518Z,8.93
2018-01-20T12:06:57.173Z,9.07
2018-01-20T12:09:24.757Z,8.63
2018-01-20T12:11:52.374Z,9.50
2018-01-20T12:14:19.958Z,8.67
2018-01-20T12:16:47.515Z,7.53
2018-01-20T12:19:15.102Z,9.90
2018-01-20T12:21:43.439Z,8.20
2018-01-20T12:24:11.010Z,8.17
2018-01-20T12:26:38.582Z,6.67
2018-01-20T12:29:06.914Z,8.87
2018-01-20T12:31:34.472Z,8.03
2018-01-20T12:34:02.021Z,9.47
2018-01-20T12:36:29.586Z,8.70
2018-01-20T12:38:57.142Z,7.93
2018-01-20T12:41:24.703Z,8.17
2018-01-20T12:43:52.291Z,8.87
2018-01-20T12:46:20.629Z,6.63
2018-01-20T12:48:48.303Z,7.47
2018-01-20T12:51:17.037Z,6.97
2018-01-20T12:56:24.561Z,7.33
2018-01-20T12:58:52.888Z,7.43
2018-01-20T13:01:21.704Z,6.50
2018-01-20T13:03:50.160Z,8.07
2018-01-20T13:06:17.806Z,8.40
2018-01-20T13:08:45.403Z,7.10
2018-01-20T13:11:13.846Z,7.67
2018-01-20T13:13:41.687Z,7.57
2018-01-20T13:16:09.739Z,7.37
2018-01-20T13:18:37.322Z,7.17
2018-01-20T13:21:04.899Z,6.73
2018-01-20T13:23:32.529Z,6.37
2018-01-20T13:26:00.205Z,6.77
2018-01-20T13:28:28.466Z,5.37
2018-01-20T13:30:56.978Z,7.47
2018-01-20T13:33:24.624Z,5.63
2018-01-20T13:35:52.258Z,6.50
2018-01-20T13:38:19.859Z,6.90
2018-01-20T13:40:47.505Z,6.67
2018-01-20T13:43:15.110Z,6.60
2018-01-20T13:45:43.443Z,6.60
2018-01-20T13:48:11.040Z,7.07
2018-01-20T13:50:39.392Z,6.83
2018-01-20T13:53:06.990Z,7.57
2018-01-20T13:55:38.910Z,6.60
2018-01-20T13:58:09.972Z,6.37
2018-01-20T14:00:41.177Z,5.27
2018-01-20T14:03:11.667Z,6.77
2018-01-20T14:05:40.224Z,5.80
2018-01-20T14:08:08.539Z,5.90
2018-01-20T14:10:37.191Z,5.63
2018-01-20T14:13:05.538Z,7.50
2018-01-20T14:15:33.179Z,5.53
2018-01-20T14:25:15.850Z,7.30
2018-01-20T14:27:44.359Z,4.93
2018-01-20T14:30:11.968Z,6.80
2018-01-20T14:44:00.684Z,5.47
2018-01-20T14:46:28.257Z,6.57
2018-01-20T14:48:55.875Z,6.33
2018-01-20T14:51:23.561Z,5.77
2018-01-20T14:53:51.824Z,6.87
2018-01-20T14:56:20.400Z,5.20
2018-01-20T14:58:48.625Z,4.20
2018-01-20T15:01:16.959Z,4.80
2018-01-20T15:03:44.537Z,5.87
2018-01-20T15:06:12.118Z,5.83
2018-01-20T15:08:39.681Z,5.43
2018-01-20T15:11:07.276Z,5.90
2018-01-20T15:13:34.866Z,5.30
2018-01-20T15:16:02.751Z,4.67
2018-01-20T15:18:30.382Z,5.07
2018-01-20T15:20:57.969Z,5.43
2018-01-20T15:23:25.715Z,4.83
2018-01-20T15:25:53.292Z,4.97
2018-01-20T15:28:20.859Z,5.17
2018-01-20T15:30:49.190Z,4.73
2018-01-20T15:33:16.746Z,5.77
2018-01-20T15:35:44.385Z,4.17
2018-01-20T15:38:14.134Z,5.63
2018-01-20T15:40:41.759Z,5.30
2018-01-20T15:43:09.330Z,3.40
2018-01-20T15:45:36.890Z,5.53
2018-01-20T15:48:04.473Z,4.27
2018-01-20T15:50:32.040Z,4.33
2018-01-20T15:52:59.610Z,4.30
2018-01-20T15:55:28.068Z,6.30
2018-01-20T15:57:55.628Z,4.07
2018-01-20T16:00:23.204Z,5.93
2018-01-20T16:02:50.766Z,4.57
2018-01-20T16:05:18.382Z,5.07
2018-01-20T16:07:45.959Z,4.50
2018-01-20T16:10:13.526Z,4.00
2018-01-20T16:12:41.090Z,4.43
2018-01-20T16:15:09.451Z,3.60
2018-01-20T16:17:37.596Z,3.70
2018-01-20T16:20:05.166Z,4.10
2018-01-20T16:22:32.803Z,4.67
2018-01-20T16:25:00.365Z,4.07
2018-01-20T16:27:27.940Z,4.80
2018-01-20T16:29:55.501Z,4.27
2018-01-20T16:32:23.169Z,3.50
2018-01-20T16:34:52.564Z,3.60
2018-01-20T16:37:21.038Z,3.43
2018-01-20T16:39:48.685Z,3.23
2018-01-20T16:42:16.310Z,3.87
2018-01-20T16:44:44.735Z,4.33
2018-01-20T16:47:12.382Z,3.47
2018-01-20T16:49:39.955Z,4.30
2018-01-20T16:52:07.617Z,2.80
2018-01-20T16:54:35.173Z,4.30
2018-01-20T16:57:02.839Z,3.57
2018-01-20T16:59:30.481Z,2.83
2018-01-20T17:01:58.042Z,3.43
2018-01-20T17:04:25.609Z,3.73
2018-01-20T17:06:53.178Z,3.90
2018-01-20T17:09:20.827Z,3.70
2018-01-20T17:11:48.405Z,3.77
2018-01-20T17:14:15.963Z,3.00
2018-01-20T17:16:43.536Z,3.30
2018-01-20T17:19:11.101Z,3.87
2018-01-20T17:21:39.439Z,3.20
2018-01-20T17:24:07.023Z,3.20
2018-01-20T17:26:34.661Z,2.70
2018-01-20T17:29:02.306Z,3.57
2018-01-20T17:31:29.866Z,3.00
2018-01-20T17:33:57.447Z,3.27
2018-01-20T17:36:25.010Z,3.53
2018-01-20T17:38:52.590Z,3.00
2018-01-20T17:41:20.913Z,2.60
2018-01-20T17:43:48.475Z,3.40
2018-01-20T17:46:16.040Z,3.13
2018-01-20T17:48:43.600Z,3.63
2018-01-20T17:51:11.165Z,3.17
2018-01-20T17:53:38.734Z,2.90
2018-01-20T17:56:07.798Z,2.93
2018-01-20T17:58:35.354Z,2.80
2018-01-20T18:01:02.922Z,2.83
2018-01-20T18:03:30.478Z,2.50
2018-01-20T18:05:58.051Z,3.07
2018-01-20T18:08:25.607Z,2.53
2018-01-20T18:10:53.178Z,3.80
2018-01-20T18:13:20.736Z,3.30
2018-01-20T18:15:48.355Z,2.33
2018-01-20T18:18:15.910Z,3.20
2018-01-20T18:20:43.585Z,3.57
2018-01-20T18:23:11.251Z,2.90
2018-01-20T18:25:38.801Z,3.20
2018-01-20T18:28:06.346Z,2.70
2018-01-20T18:30:34.006Z,3.00
2018-01-20T18:33:01.579Z,2.57
2018-01-20T18:35:29.146Z,3.40
2018-01-20T18:37:56.712Z,3.57
2018-01-20T18:40:25.067Z,2.43
2018-01-20T18:42:52.618Z,2.47
2018-01-20T18:45:20.174Z,2.40
2018-01-20T18:47:47.729Z,2.37
2018-01-20T18:50:15.286Z,2.50
2018-01-20T18:52:42.834Z,3.00
2018-01-20T18:55:10.382Z,2.93
2018-01-20T18:57:37.951Z,2.87
2018-01-20T19:00:05.515Z,2.77
2018-01-20T19:02:33.082Z,3.00
2018-01-20T19:05:00.642Z,2.67
2018-01-20T19:07:28.198Z,2.33
2018-01-20T19:09:55.762Z,2.37
2018-01-20T19:12:23.346Z,3.00
2018-01-20T19:14:50.913Z,3.07
2018-01-20T19:17:18.486Z,3.00
2018-01-20T19:19:46.945Z,3.57
2018-01-20T19:22:14.505Z,2.73
2018-01-20T19:24:42.092Z,2.63
2018-01-20T19:27:09.682Z,3.77
2018-01-20T19:29:37.342Z,3.27
2018-01-20T19:32:04.894Z,3.27
2018-01-20T19:34:32.470Z,2.43
2018-01-20T19:37:00.044Z,2.00
2018-01-20T19:39:27.646Z,2.43
2018-01-20T19:41:55.201Z,2.50
2018-01-20T19:44:22.769Z,2.00
2018-01-20T19:46:50.371Z,5.50
2018-01-20T19:49:19.743Z,3.50
2018-01-20T19:51:47.340Z,4.97
2018-01-20T19:54:14.922Z,4.93
2018-01-20T19:56:43.963Z,3.63
2018-01-20T19:59:11.818Z,3.20
2018-01-20T20:01:39.390Z,2.20
2018-01-20T20:04:06.946Z,2.33
2018-01-20T20:06:34.545Z,3.00
2018-01-20T20:09:02.874Z,2.30
2018-01-20T20:11:30.442Z,2.83
2018-01-20T20:13:59.111Z,4.33
2018-01-20T20:16:26.657Z,4.47
2018-01-20T20:18:54.607Z,3.13
2018-01-20T20:21:22.171Z,8.00
2018-01-20T20:23:49.733Z,6.30
2018-01-20T20:26:17.290Z,6.17
2018-01-20T20:28:44.837Z,4.93
2018-01-20T20:31:13.150Z,5.20
2018-01-20T20:33:40.810Z,3.63
2018-01-20T20:36:08.386Z,5.67
2018-01-20T20:38:35.974Z,3.83
2018-01-20T20:41:04.415Z,5.40
2018-01-20T20:43:31.970Z,3.40
2018-01-20T20:46:00.328Z,2.70
2018-01-20T20:48:29.934Z,2.93
2018-01-20T20:50:58.183Z,2.63
2018-01-20T20:53:26.142Z,2.07
2018-01-20T20:55:53.742Z,3.03
2018-01-20T20:58:21.423Z,4.23
2018-01-20T21:00:48.999Z,2.30
2018-01-20T21:03:16.545Z,2.70
2018-01-20T21:05:45.113Z,2.00
2018-01-20T21:08:13.197Z,2.43
2018-01-20T21:10:40.806Z,3.23
2018-01-20T21:13:08.488Z,2.63
2018-01-20T21:15:36.046Z,3.40
2018-01-20T21:18:03.600Z,2.47
2018-01-20T21:20:31.156Z,2.63
2018-01-20T21:22:58.779Z,3.83
2018-01-20T21:25:27.207Z,3.60
2018-01-20T21:27:54.866Z,2.20
2018-01-20T21:30:22.528Z,2.10
2018-01-20T21:32:50.186Z,2.63
2018-01-20T21:35:17.734Z,2.10
2018-01-20T21:37:45.292Z,1.63
2018-01-20T21:40:12.856Z,2.77
2018-01-20T21:42:40.406Z,3.03
2018-01-20T21:45:07.979Z,1.90
2018-01-20T21:47:35.825Z,3.93
2018-01-20T21:50:03.379Z,3.27
2018-01-20T21:52:30.940Z,2.70
2018-01-20T21:54:58.502Z,4.27
2018-01-20T21:57:26.075Z,1.90
2018-01-20T21:59:53.859Z,2.60
2018-01-20T22:02:22.933Z,1.93
2018-01-20T22:04:50.487Z,2.43
2018-01-20T22:07:18.064Z,1.70
2018-01-20T22:09:46.549Z,3.03
2018-01-20T22:12:15.298Z,1.73
2018-01-20T22:14:44.289Z,2.07
2018-01-20T22:17:12.685Z,2.93
2018-01-20T22:19:40.264Z,3.27
2018-01-20T22:22:07.867Z,2.30
2018-01-20T22:24:36.163Z,2.27
2018-01-20T22:27:03.719Z,2.43
2018-01-20T22:29:31.380Z,3.20
2018-01-20T22:31:58.930Z,3.27
2018-01-20T22:34:26.490Z,2.63
2018-01-20T22:36:54.068Z,1.43
2018-01-20T22:39:21.632Z,2.80
2018-01-20T22:41:49.214Z,2.20
2018-01-20T22:44:16.788Z,2.53
2018-01-20T22:46:45.152Z,1.80
2018-01-20T22:49:12.707Z,1.60
2018-01-20T22:51:41.065Z,2.67
2018-01-20T22:54:08.625Z,1.70
2018-01-20T22:56:36.210Z,1.97
2018-01-20T22:59:04.538Z,3.20
2018-01-20T23:01:32.123Z,1.20
2018-01-20T23:03:59.690Z,1.37
2018-01-20T23:06:27.320Z,1.40
2018-01-20T23:08:54.966Z,1.90
2018-01-20T23:11:22.551Z,1.60
2018-01-20T23:13:52.453Z,2.47
2018-01-20T23:16:21.395Z,1.53
2018-01-20T23:18:51.335Z,2.07
2018-01-20T23:21:22.295Z,2.40
2018-01-20T23:23:51.470Z,1.73
2018-01-20T23:26:21.199Z,1.60
2018-01-20T23:28:51.580Z,1.60
2018-01-20T23:31:19.879Z,1.70
2018-01-20T23:33:50.694Z,2.57
2018-01-20T23:36:20.144Z,1.63
2018-01-20T23:38:48.897Z,1.53
2018-01-20T23:41:17.071Z,1.60
2018-01-20T23:43:45.355Z,1.40
2018-01-20T23:46:13.866Z,1.83
2018-01-20T23:48:42.520Z,1.17
2018-01-20T23:51:10.145Z,1.27
2018-01-20T23:53:38.059Z,1.40
2018-01-20T23:56:06.448Z,1.50
2018-01-20T23:58:33.998Z,1.73
